Time;durP1;ratioP1;P1;durP2;ratioP2;P2;SDS_P1;SDS_P2;PMS_P1;PMS_P2;Temp;Humidity;BMP_temperature;BMP_pressure;BME280_temperature;BME280_humidity;BME280_pressure;Samples;Min_cycle;Max_cycle;Signal;HPM_P1;HPM_P2
2022/11/05 00:09:40;;;;;;;4.87;3.90;;;;;;;9.30;100.00;99847.53;5054835;28;20208;-61
2022/11/05 00:17:40;;;;;;;5.37;4.73;;;;;;;9.44;100.00;99857.06;5026128;28;20240;-60
2022/11/05 00:20:07;;;;;;;5.53;4.80;;;;;;;9.40;100.00;99860.66;5043862;28;20189;-60
2022/11/05 00:25:17;;;;;;;6.50;5.90;;;;;;;9.32;100.00;99861.09;5054654;28;20274;-60
2022/11/05 00:27:50;;;;;;;8.67;6.37;;;;;;;9.27;100.00;99867.41;5031105;28;20177;-60
2022/11/05 00:30:18;;;;;;;7.50;5.23;;;;;;;9.33;100.00;99872.19;4998204;28;20184;-61
2022/11/05 00:32:45;;;;;;;7.60;5.40;;;;;;;9.27;100.00;99872.53;5011846;28;20188;-60
2022/11/05 00:35:10;;;;;;;6.50;5.90;;;;;;;9.24;100.00;99875.25;5035709;28;20222;-60
2022/11/05 00:37:36;;;;;;;6.73;6.13;;;;;;;8.92;100.00;99876.00;5053219;28;20640;-61
2022/11/05 00:40:02;;;;;;;8.53;7.27;;;;;;;8.98;100.00;99885.97;5014296;28;20256;-61
2022/11/05 00:45:13;;;;;;;9.10;7.47;;;;;;;9.13;100.00;99891.19;5051527;28;20335;-59
2022/11/05 00:50:23;;;;;;;10.70;7.27;;;;;;;9.08;100.00;99898.31;5046281;28;20312;-59
2022/11/05 00:53:00;;;;;;;10.50;8.57;;;;;;;9.09;100.00;99890.53;5066413;28;20273;-59
2022/11/05 00:55:36;;;;;;;12.27;8.53;;;;;;;9.09;100.00;99894.84;5052573;28;20197;-60
2022/11/05 00:58:04;;;;;;;11.07;9.50;;;;;;;9.03;100.00;99894.25;5066085;28;20192;-62
2022/11/05 01:00:31;;;;;;;10.97;8.47;;;;;;;9.04;100.00;99895.06;5029956;28;20686;-59
2022/11/05 01:03:02;;;;;;;11.97;10.00;;;;;;;9.04;100.00;99897.63;5048594;28;20181;-62
2022/11/05 01:05:28;;;;;;;16.53;10.33;;;;;;;9.06;100.00;99900.13;5049308;28;20355;-60
2022/11/05 01:07:54;;;;;;;13.50;10.67;;;;;;;9.06;100.00;99910.41;5068919;28;20177;-59
2022/11/05 01:10:20;;;;;;;13.17;11.20;;;;;;;9.06;100.00;99911.22;5042315;28;20185;-60
2022/11/05 01:12:46;;;;;;;13.07;10.40;;;;;;;9.04;100.00;99915.59;5023950;28;20243;-59
2022/11/05 01:15:11;;;;;;;12.63;10.97;;;;;;;9.13;100.00;99917.69;5053517;28;20189;-59
2022/11/05 01:17:36;;;;;;;13.77;10.97;;;;;;;9.10;100.00;99917.84;5035218;28;20182;-59
2022/11/05 01:20:03;;;;;;;13.57;11.10;;;;;;;9.05;100.00;99917.25;5049207;28;20172;-62
2022/11/05 01:22:28;;;;;;;12.57;11.07;;;;;;;9.04;100.00;99920.72;5046039;28;20197;-60
2022/11/05 01:24:53;;;;;;;13.83;10.80;;;;;;;9.06;100.00;99918.09;5053017;28;20670;-60
2022/11/05 01:27:18;;;;;;;12.43;10.60;;;;;;;9.06;100.00;99924.03;5047917;28;20181;-60
2022/11/05 01:29:44;;;;;;;13.30;11.17;;;;;;;9.15;100.00;99925.31;5050551;28;20289;-60
2022/11/05 01:32:09;;;;;;;12.73;11.33;;;;;;;9.16;100.00;99932.91;5037889;28;20319;-59
2022/11/05 01:34:34;;;;;;;13.43;11.77;;;;;;;9.20;100.00;99931.88;5053432;28;20189;-60
2022/11/05 01:36:59;;;;;;;13.37;11.43;;;;;;;9.25;100.00;99939.31;5052530;28;20252;-59
2022/11/05 01:39:25;;;;;;;13.17;11.80;;;;;;;9.23;100.00;99932.59;5053163;28;20231;-61
2022/11/05 01:41:53;;;;;;;15.70;11.73;;;;;;;9.09;100.00;99941.88;5037893;28;20640;-61
2022/11/05 01:44:56;;;;;;;13.17;11.00;;;;;;;8.95;100.00;99937.41;5052845;28;20184;-59
2022/11/05 01:47:33;;;;;;;14.30;12.20;;;;;;;9.14;100.00;99942.47;5043198;28;20663;-60
2022/11/05 01:50:03;;;;;;;17.83;13.03;;;;;;;9.09;100.00;99946.16;5052922;28;20492;-62
2022/11/05 01:52:32;;;;;;;13.93;12.40;;;;;;;9.00;100.00;99953.41;5025324;28;20232;-60
2022/11/05 01:54:58;;;;;;;14.80;13.17;;;;;;;9.12;100.00;99951.97;5034632;28;20637;-60
2022/11/05 01:57:24;;;;;;;14.83;13.20;;;;;;;9.29;100.00;99948.53;5041629;28;20242;-60
2022/11/05 01:59:55;;;;;;;16.23;13.67;;;;;;;9.23;100.00;99951.41;5058819;28;20868;-60
2022/11/05 02:02:21;;;;;;;15.80;14.03;;;;;;;9.26;100.00;99948.69;5042030;28;20699;-61
2022/11/05 02:04:58;;;;;;;16.30;14.30;;;;;;;9.30;100.00;99950.19;5064849;28;20200;-60
2022/11/05 02:07:25;;;;;;;20.73;14.43;;;;;;;9.32;100.00;99956.06;5020811;28;20361;-60
2022/11/05 02:09:59;;;;;;;16.63;14.73;;;;;;;9.22;100.00;99949.75;5034514;28;20181;-59
2022/11/05 02:12:24;;;;;;;16.07;14.43;;;;;;;9.22;100.00;99951.50;5057894;28;20302;-59
2022/11/05 02:14:50;;;;;;;17.23;14.97;;;;;;;9.33;100.00;99959.47;5052601;28;20291;-59
2022/11/05 02:18:04;;;;;;;19.80;16.60;;;;;;;9.13;100.00;99956.19;5034191;28;20197;-60
2022/11/05 02:21:00;;;;;;;21.73;16.53;;;;;;;9.13;100.00;99961.31;5045171;28;20308;-60
2022/11/05 02:23:43;;;;;;;19.10;16.07;;;;;;;9.27;100.00;99964.94;5042981;28;20189;-60
2022/11/05 02:26:11;;;;;;;20.37;18.10;;;;;;;9.27;100.00;99960.59;5037288;28;20668;-60
2022/11/05 02:29:12;;;;;;;19.53;17.17;;;;;;;9.26;100.00;99968.41;5051865;28;20173;-59
2022/11/05 02:31:51;;;;;;;21.73;17.87;;;;;;;9.20;100.00;99959.25;5040577;28;20777;-60
2022/11/05 02:34:54;;;;;;;21.60;18.23;;;;;;;9.38;100.00;99967.75;5053407;28;20189;-60
2022/11/05 02:37:43;;;;;;;20.33;18.23;;;;;;;9.22;100.00;99965.16;4989535;28;20273;-59
2022/11/05 02:40:21;;;;;;;20.77;17.67;;;;;;;9.25;100.00;99977.81;4964141;28;20179;-59
2022/11/05 02:43:13;;;;;;;22.80;18.97;;;;;;;9.25;100.00;99979.56;4990374;28;20198;-61
2022/11/05 02:46:14;;;;;;;23.23;18.57;;;;;;;9.14;100.00;99980.94;4977641;28;20204;-60
2022/11/05 02:49:12;;;;;;;24.97;18.27;;;;;;;9.31;100.00;99982.63;4962331;28;20658;-61
2022/11/05 02:51:54;;;;;;;25.17;19.63;;;;;;;9.33;100.00;99988.53;4965051;28;20231;-61
2022/11/05 02:54:29;;;;;;;22.73;18.73;;;;;;;9.40;100.00;99988.22;4973840;28;20243;-60
2022/11/05 02:56:56;;;;;;;24.03;20.83;;;;;;;9.48;100.00;99986.91;4973321;28;20199;-60
2022/11/05 02:59:22;;;;;;;25.00;20.37;;;;;;;9.35;100.00;99983.31;4974168;28;20231;-59
2022/11/05 03:01:49;;;;;;;21.77;17.73;;;;;;;9.20;100.00;99984.94;4961536;28;20235;-60
2022/11/05 03:04:18;;;;;;;19.07;16.97;;;;;;;9.00;100.00;99979.06;4978460;28;20214;-60
2022/11/05 03:06:56;;;;;;;14.77;13.17;;;;;;;8.85;100.00;99975.50;4973330;28;20183;-60
2022/11/05 03:09:46;;;;;;;15.17;12.47;;;;;;;8.77;100.00;99977.66;5067231;28;20196;-60
2022/11/05 03:12:30;;;;;;;13.63;12.07;;;;;;;8.65;100.00;99989.31;5038727;28;20308;-60
2022/11/05 03:15:33;;;;;;;14.13;11.17;;;;;;;8.62;100.00;99989.47;5033712;28;20238;-61
2022/11/05 03:18:18;;;;;;;15.97;10.90;;;;;;;8.62;100.00;99986.91;5040445;28;20235;-60
2022/11/05 03:20:58;;;;;;;11.40;9.27;;;;;;;8.54;100.00;99991.56;5028951;28;20321;-59
2022/11/05 03:23:30;;;;;;;11.20;7.90;;;;;;;8.50;100.00;99992.63;5042376;28;20188;-60
2022/11/05 03:26:04;;;;;;;8.20;7.20;;;;;;;8.50;100.00;99993.44;5051425;28;20208;-60
2022/11/05 03:28:36;;;;;;;8.23;6.50;;;;;;;8.36;100.00;99995.78;5033109;28;20996;-59
2022/11/05 03:31:04;;;;;;;7.07;5.37;;;;;;;8.35;100.00;100002.66;5031285;28;20633;-60
2022/11/05 03:33:33;;;;;;;6.90;4.80;;;;;;;8.35;100.00;99994.97;5041066;28;20189;-60
2022/11/05 03:36:04;;;;;;;4.23;3.67;;;;;;;8.24;100.00;100003.16;5033239;28;20217;-59
2022/11/05 03:38:37;;;;;;;6.37;4.33;;;;;;;8.43;100.00;100004.88;5033046;28;20187;-59
2022/11/05 03:41:06;;;;;;;6.73;5.37;;;;;;;8.49;100.00;100012.28;5031189;28;20224;-60
2022/11/05 03:43:36;;;;;;;7.83;5.50;;;;;;;8.44;100.00;100016.78;5041333;28;20603;-60
2022/11/05 03:46:09;;;;;;;6.47;5.13;;;;;;;8.47;100.00;100014.13;5032851;28;20201;-60
2022/11/05 03:48:40;;;;;;;4.40;4.00;;;;;;;8.52;100.00;100024.97;5050651;28;20181;-59
2022/11/05 03:51:29;;;;;;;5.70;4.37;;;;;;;8.44;100.00;100029.59;5031777;28;20684;-61
2022/11/05 03:53:58;;;;;;;3.80;3.30;;;;;;;8.47;100.00;100026.09;5055407;28;20246;-59
2022/11/05 03:56:34;;;;;;;4.33;3.53;;;;;;;8.51;100.00;100030.19;5032108;28;20285;-60
2022/11/05 03:59:01;;;;;;;3.80;2.80;;;;;;;8.56;100.00;100033.34;5020665;28;20526;-60
2022/11/05 04:01:27;;;;;;;3.27;2.97;;;;;;;8.56;100.00;100033.34;5024755;28;20279;-60
2022/11/05 04:03:52;;;;;;;3.70;2.87;;;;;;;8.63;100.00;100039.00;5043085;28;20534;-60
2022/11/05 04:14:38;;;;;;;2.70;1.87;;;;;;;8.55;100.00;100049.66;5027481;28;20197;-59
2022/11/05 04:17:07;;;;;;;2.30;1.90;;;;;;;8.46;100.00;100061.16;5038688;28;20281;-61
2022/11/05 04:25:12;;;;;;;2.60;1.93;;;;;;;8.24;100.00;100061.28;5050994;28;20545;-60
2022/11/05 04:27:37;;;;;;;1.87;1.60;;;;;;;8.20;100.00;100065.72;5032051;28;20177;-61
2022/11/05 04:30:19;;;;;;;3.83;1.50;;;;;;;8.37;100.00;100071.78;5044451;28;20704;-64
2022/11/05 04:33:15;;;;;;;2.80;2.03;;;;;;;8.07;100.00;100085.94;5022878;28;20221;-61
2022/11/05 04:35:46;;;;;;;2.53;1.90;;;;;;;8.14;100.00;100088.22;4988740;28;20226;-61
2022/11/05 04:38:17;;;;;;;3.27;1.90;;;;;;;8.11;100.00;100086.59;4988627;28;20249;-61
2022/11/05 04:40:43;;;;;;;2.23;1.93;;;;;;;8.15;100.00;100087.28;4979305;28;20258;-61
2022/11/05 04:43:13;;;;;;;2.47;1.80;;;;;;;8.08;100.00;100092.69;4988334;28;20254;-61
2022/11/05 04:45:38;;;;;;;2.50;2.30;;;;;;;8.05;100.00;100103.09;4972840;28;20672;-61
2022/11/05 04:48:04;;;;;;;2.73;1.87;;;;;;;7.97;100.00;100102.59;4990761;28;20273;-61
2022/11/05 04:50:30;;;;;;;2.20;2.00;;;;;;;7.93;100.00;100101.06;4982731;28;20306;-60
2022/11/05 04:52:55;;;;;;;5.83;2.30;;;;;;;7.82;100.00;100106.66;4975983;28;20356;-62
2022/11/05 04:55:21;;;;;;;3.30;2.20;;;;;;;7.75;100.00;100107.81;4992257;28;20207;-61
2022/11/05 04:57:50;;;;;;;2.63;2.43;;;;;;;7.80;100.00;100105.06;4991953;28;20191;-61
2022/11/05 05:00:17;;;;;;;6.73;2.93;;;;;;;7.83;100.00;100113.44;4965831;28;20648;-62
2022/11/05 05:02:43;;;;;;;4.63;3.23;;;;;;;7.84;100.00;100115.09;4983042;28;20279;-61
2022/11/05 05:05:09;;;;;;;3.30;3.00;;;;;;;7.81;100.00;100114.41;4971426;28;20219;-61
2022/11/05 05:07:34;;;;;;;6.33;3.63;;;;;;;7.88;100.00;100118.38;4991842;28;20199;-61
2022/11/05 05:10:00;;;;;;;7.23;4.03;;;;;;;7.77;100.00;100116.25;4992308;28;20287;-61
2022/11/05 05:12:25;;;;;;;5.73;4.30;;;;;;;7.86;100.00;100126.13;4995713;28;20421;-61
2022/11/05 05:14:51;;;;;;;6.07;5.47;;;;;;;7.71;100.00;100122.47;5053663;28;20652;-61
2022/11/05 05:17:16;;;;;;;5.53;4.97;;;;;;;7.83;100.00;100110.88;5052982;28;20235;-62
2022/11/05 05:22:26;;;;;;;9.50;6.80;;;;;;;7.73;100.00;100118.13;5058327;28;20765;-62
2022/11/05 05:24:51;;;;;;;10.13;7.67;;;;;;;7.79;100.00;100114.47;5053394;28;20193;-61
2022/11/05 05:27:16;;;;;;;11.63;7.30;;;;;;;7.79;100.00;100116.19;5034945;28;20190;-61
2022/11/05 05:29:42;;;;;;;12.87;7.53;;;;;;;7.96;100.00;100120.59;5053426;28;20224;-62
2022/11/05 05:32:07;;;;;;;11.87;7.77;;;;;;;7.93;100.00;100120.75;5058310;28;20229;-61
2022/11/05 05:34:32;;;;;;;13.13;9.00;;;;;;;7.87;100.00;100117.53;5053404;28;20171;-62
2022/11/05 05:36:58;;;;;;;10.57;8.33;;;;;;;7.84;100.00;100127.91;5052660;28;20596;-61
2022/11/05 05:39:25;;;;;;;13.80;9.13;;;;;;;7.83;100.00;100133.94;5053062;28;20202;-61
2022/11/05 05:41:51;;;;;;;10.30;8.80;;;;;;;7.85;100.00;100127.03;5026722;28;20714;-61
2022/11/05 05:44:16;;;;;;;11.27;9.27;;;;;;;7.81;100.00;100122.91;5048612;28;20259;-62
2022/11/05 05:46:41;;;;;;;10.47;8.80;;;;;;;7.87;100.00;100129.50;5052201;28;20557;-61
2022/11/05 05:49:09;;;;;;;15.23;9.10;;;;;;;7.94;100.00;100127.50;5053373;28;20702;-61
2022/11/05 05:51:35;;;;;;;13.33;10.33;;;;;;;8.05;100.00;100127.88;5054518;28;20234;-61
2022/11/05 05:54:00;;;;;;;16.47;10.73;;;;;;;8.08;100.00;100128.56;5056491;28;20253;-61
2022/11/05 05:56:25;;;;;;;12.57;10.10;;;;;;;8.08;100.00;100135.44;5052311;28;20629;-60
2022/11/05 05:58:51;;;;;;;14.67;10.53;;;;;;;8.06;100.00;100137.22;5066133;28;20237;-61
2022/11/05 06:01:17;;;;;;;16.50;9.67;;;;;;;7.95;100.00;100139.41;5052869;28;20242;-61
2022/11/05 06:03:42;;;;;;;14.50;10.90;;;;;;;7.98;100.00;100141.88;5062116;28;20180;-61
2022/11/05 06:06:11;;;;;;;13.17;11.07;;;;;;;7.90;100.00;100139.59;5062751;28;20254;-61
2022/11/05 06:08:37;;;;;;;12.80;9.90;;;;;;;7.93;100.00;100154.84;5067295;28;20587;-60
2022/11/05 06:11:04;;;;;;;14.90;10.63;;;;;;;7.90;100.00;100160.94;5050491;28;20231;-61
2022/11/05 06:13:29;;;;;;;18.00;11.47;;;;;;;8.04;100.00;100164.66;5060046;28;20178;-61
2022/11/05 06:16:06;;;;;;;12.40;10.30;;;;;;;7.97;100.00;100164.06;5034377;28;20238;-61
2022/11/05 06:18:33;;;;;;;12.27;10.97;;;;;;;8.20;100.00;100169.94;5052217;28;20185;-61
2022/11/05 06:21:06;;;;;;;14.57;10.80;;;;;;;8.14;100.00;100165.91;5031745;28;20290;-60
2022/11/05 06:23:33;;;;;;;12.37;11.07;;;;;;;8.07;100.00;100173.03;5042349;28;20187;-61
2022/11/05 06:26:00;;;;;;;23.63;11.20;;;;;;;8.09;100.00;100178.09;5067505;28;20189;-62
2022/11/05 06:28:25;;;;;;;14.07;10.60;;;;;;;7.78;100.00;100175.97;5032946;28;20189;-62
2022/11/05 06:30:50;;;;;;;13.13;11.07;;;;;;;7.86;100.00;100186.75;5041511;28;20772;-62
2022/11/05 06:33:16;;;;;;;14.63;10.23;;;;;;;8.08;100.00;100186.66;5050749;28;20173;-62
2022/11/05 06:35:41;;;;;;;13.93;11.20;;;;;;;8.22;100.00;100186.06;5051855;28;20280;-61
2022/11/05 06:38:06;;;;;;;13.17;10.73;;;;;;;8.31;100.00;100187.41;5033465;28;20185;-61
2022/11/05 06:40:32;;;;;;;16.60;11.67;;;;;;;8.12;100.00;100192.50;5041001;28;20375;-61
2022/11/05 06:42:57;;;;;;;14.60;11.37;;;;;;;8.21;100.00;100185.25;5048728;28;20185;-62
2022/11/05 06:45:22;;;;;;;16.47;11.20;;;;;;;8.30;100.00;100195.97;5052024;28;20223;-62
2022/11/05 06:47:53;;;;;;;14.60;11.60;;;;;;;8.24;100.00;100200.47;5033287;28;20182;-62
2022/11/05 06:50:19;;;;;;;20.20;11.53;;;;;;;8.23;100.00;100203.13;5058975;28;20177;-62
2022/11/05 06:52:51;;;;;;;13.50;11.40;;;;;;;8.34;100.00;100206.03;5064886;28;20271;-63
2022/11/05 06:55:16;;;;;;;14.27;11.77;;;;;;;8.32;100.00;100210.41;5033852;28;20221;-62
2022/11/05 06:57:41;;;;;;;15.83;11.83;;;;;;;8.33;100.00;100213.81;5060898;28;20561;-61
2022/11/05 07:00:07;;;;;;;14.93;11.37;;;;;;;8.31;100.00;100220.72;5046680;28;20186;-62
2022/11/05 07:02:33;;;;;;;16.23;11.33;;;;;;;8.42;100.00;100225.38;5050006;28;20536;-61
2022/11/05 07:04:58;;;;;;;16.00;11.13;;;;;;;8.39;100.00;100228.91;5070161;28;20201;-62
2022/11/05 07:07:23;;;;;;;12.20;10.90;;;;;;;8.33;100.00;100236.88;5050989;28;20182;-61
2022/11/05 07:09:51;;;;;;;16.60;11.60;;;;;;;8.34;100.00;100241.94;5051510;28;20209;-61
2022/11/05 07:12:16;;;;;;;13.07;10.97;;;;;;;8.50;100.00;100246.44;5039280;28;20225;-62
2022/11/05 07:14:41;;;;;;;17.00;10.33;;;;;;;8.55;100.00;100244.50;5051481;28;20177;-62
2022/11/05 07:17:07;;;;;;;11.23;10.03;;;;;;;8.40;100.00;100251.91;5051041;28;20218;-61
2022/11/05 07:19:32;;;;;;;12.77;9.47;;;;;;;8.44;100.00;100250.06;5051576;28;20177;-62
2022/11/05 07:21:57;;;;;;;12.43;8.83;;;;;;;8.60;100.00;100260.50;5055585;28;20221;-62
2022/11/05 07:24:22;;;;;;;11.27;8.53;;;;;;;8.65;100.00;100258.56;5052054;28;20594;-62
2022/11/05 07:26:48;;;;;;;11.93;7.80;;;;;;;8.75;100.00;100264.13;5050751;28;20209;-61
2022/11/05 07:29:13;;;;;;;12.57;7.70;;;;;;;8.85;100.00;100265.38;5051733;28;20177;-62
2022/11/05 07:31:38;;;;;;;10.20;8.00;;;;;;;9.04;100.00;100267.97;5053661;28;20224;-61
2022/11/05 07:34:03;;;;;;;9.47;7.53;;;;;;;9.07;100.00;100269.56;5054134;28;20602;-61
2022/11/05 07:36:29;;;;;;;11.47;7.97;;;;;;;9.20;100.00;100262.97;5050505;28;20235;-61
2022/11/05 07:38:54;;;;;;;11.30;7.63;;;;;;;9.08;100.00;100262.69;5051287;28;20199;-61
2022/11/05 07:41:19;;;;;;;8.93;7.20;;;;;;;9.16;100.00;100273.44;5050781;28;20266;-61
2022/11/05 07:43:44;;;;;;;10.53;7.23;;;;;;;9.19;100.00;100268.13;5056796;28;20530;-61
2022/11/05 07:46:10;;;;;;;9.30;6.27;;;;;;;9.28;100.00;100277.16;5050734;28;20219;-62
2022/11/05 07:48:36;;;;;;;12.17;6.97;;;;;;;9.46;100.00;100278.88;5050838;28;20786;-61
2022/11/05 07:51:01;;;;;;;13.20;7.20;;;;;;;9.25;100.00;100282.44;5055506;28;20225;-62
2022/11/05 07:53:26;;;;;;;8.20;7.40;;;;;;;9.18;100.00;100293.00;5050404;28;20208;-61
2022/11/05 07:55:52;;;;;;;9.80;7.03;;;;;;;9.26;100.00;100295.19;5066274;28;20282;-62
2022/11/05 07:58:17;;;;;;;11.83;6.80;;;;;;;9.23;100.00;100292.78;5063855;28;20181;-61
2022/11/05 08:00:43;;;;;;;8.53;6.87;;;;;;;9.36;100.00;100301.59;5036573;28;20354;-61
2022/11/05 08:03:14;;;;;;;10.67;7.57;;;;;;;9.44;100.00;100305.50;5037274;28;20526;-62
2022/11/05 08:05:43;;;;;;;8.20;6.50;;;;;;;9.59;100.00;100307.38;5054493;28;20220;-61
2022/11/05 08:08:11;;;;;;;8.53;6.47;;;;;;;9.84;100.00;100306.22;5049310;28;20181;-63
2022/11/05 08:10:37;;;;;;;11.43;6.53;;;;;;;9.87;100.00;100306.06;5037196;28;20228;-62
2022/11/05 08:13:04;;;;;;;10.73;6.10;;;;;;;9.79;100.00;100298.72;5044085;28;20178;-62
2022/11/05 08:15:29;;;;;;;9.57;5.97;;;;;;;9.82;100.00;100311.44;5021903;28;20236;-62
2022/11/05 08:18:00;;;;;;;12.37;5.93;;;;;;;9.89;100.00;100303.44;5035538;28;20182;-62
2022/11/05 08:20:26;;;;;;;9.20;5.70;;;;;;;9.79;100.00;100310.75;5020868;28;20240;-62
2022/11/05 08:22:52;;;;;;;10.17;6.13;;;;;;;9.86;100.00;100314.69;5024486;28;20263;-62
2022/11/05 08:25:17;;;;;;;9.53;5.57;;;;;;;9.86;100.00;100314.69;5035604;28;20196;-62
2022/11/05 08:27:44;;;;;;;8.40;6.30;;;;;;;9.73;100.00;100314.44;5053562;28;20173;-62
2022/11/05 08:30:10;;;;;;;7.70;5.73;;;;;;;9.74;100.00;100317.84;5022678;28;20176;-61
2022/11/05 08:32:35;;;;;;;9.67;6.57;;;;;;;9.80;100.00;100314.97;5027004;28;20196;-61
2022/11/05 08:35:00;;;;;;;9.93;6.20;;;;;;;9.83;100.00;100320.78;5053323;28;20185;-62
2022/11/05 08:37:26;;;;;;;12.80;6.60;;;;;;;9.88;100.00;100323.13;5053566;28;20608;-61
2022/11/05 08:39:51;;;;;;;8.20;6.43;;;;;;;9.91;100.00;100325.56;5054071;28;20273;-62
2022/11/05 08:42:16;;;;;;;7.07;5.73;;;;;;;10.05;100.00;100324.91;5042161;28;20241;-62
2022/11/05 08:44:42;;;;;;;12.33;6.33;;;;;;;9.89;100.00;100324.81;5035632;28;20288;-66
2022/11/05 08:47:07;;;;;;;7.77;5.70;;;;;;;9.83;100.00;100327.66;5052581;28;20607;-71
2022/11/05 08:49:32;;;;;;;8.87;5.77;;;;;;;9.68;100.00;100331.81;5054170;28;20185;-62
2022/11/05 08:51:57;;;;;;;8.63;6.57;;;;;;;9.76;100.00;100337.41;5043008;28;20355;-63
2022/11/05 08:54:23;;;;;;;9.13;7.30;;;;;;;9.63;100.00;100339.72;5051500;28;20181;-61
2022/11/05 08:56:48;;;;;;;13.60;6.80;;;;;;;9.66;100.00;100349.00;5036339;28;20201;-61
2022/11/05 08:59:13;;;;;;;12.73;6.90;;;;;;;9.84;100.00;100352.47;5046812;28;20275;-61
2022/11/05 09:01:39;;;;;;;13.60;7.00;;;;;;;10.09;100.00;100349.53;5056633;28;20417;-61
2022/11/05 09:04:04;;;;;;;13.17;6.90;;;;;;;10.19;100.00;100344.78;5062966;28;20604;-61
2022/11/05 09:06:29;;;;;;;12.33;7.03;;;;;;;10.35;100.00;100350.00;5060521;28;20211;-61
2022/11/05 09:08:55;;;;;;;9.43;7.10;;;;;;;10.57;100.00;100349.78;5035379;28;20177;-61
2022/11/05 09:11:20;;;;;;;9.70;8.37;;;;;;;10.75;100.00;100354.91;5036305;28;20232;-59
2022/11/05 09:13:46;;;;;;;14.43;9.30;;;;;;;10.72;100.00;100355.91;5059019;28;20197;-61
2022/11/05 09:16:33;;;;;;;13.30;8.67;;;;;;;10.65;100.00;100352.81;5053276;28;20267;-59
2022/11/05 09:18:58;;;;;;;15.07;9.63;;;;;;;10.91;100.00;100352.38;5035387;28;20642;-59
2022/11/05 09:21:23;;;;;;;11.57;9.17;;;;;;;10.83;100.00;100350.22;5026423;28;20227;-60
2022/11/05 09:23:49;;;;;;;12.70;9.20;;;;;;;10.70;100.00;100346.59;5054133;28;20177;-60
2022/11/05 09:26:14;;;;;;;9.60;8.60;;;;;;;11.09;100.00;100359.13;5053285;28;20216;-61
2022/11/05 09:28:42;;;;;;;13.57;8.27;;;;;;;11.10;100.00;100365.97;5053158;28;20187;-60
2022/11/05 09:31:09;;;;;;;12.23;8.40;;;;;;;11.11;100.00;100357.31;5033442;28;20224;-60
2022/11/05 09:33:36;;;;;;;10.23;6.70;;;;;;;10.51;100.00;100362.16;5050780;28;20215;-60
2022/11/05 09:36:04;;;;;;;8.10;6.73;;;;;;;10.52;100.00;100363.78;5052502;28;20311;-62
2022/11/05 09:38:31;;;;;;;8.87;6.23;;;;;;;10.64;100.00;100369.16;5034780;28;20193;-60
2022/11/05 09:40:59;;;;;;;11.57;6.27;;;;;;;10.86;100.00;100373.19;5032047;28;20649;-60
2022/11/05 09:43:42;;;;;;;6.70;5.60;;;;;;;10.97;100.00;100375.22;5043218;28;20269;-61
2022/11/05 09:46:22;;;;;;;8.60;4.53;;;;;;;11.43;100.00;100372.78;5034595;28;20197;-61
2022/11/05 09:48:52;;;;;;;8.60;5.20;;;;;;;13.61;100.00;100374.09;5035294;28;20169;-61
2022/11/05 09:51:18;;;;;;;6.67;4.37;;;;;;;15.76;98.06;100370.88;5031395;28;20220;-62
2022/11/05 09:53:45;;;;;;;5.57;4.30;;;;;;;18.03;80.29;100372.78;5052527;28;20173;-61
2022/11/05 09:56:25;;;;;;;7.63;4.53;;;;;;;17.36;79.93;100375.44;5033931;28;20217;-62
2022/11/05 09:58:56;;;;;;;7.07;4.10;;;;;;;17.09;78.68;100378.44;5047934;28;20239;-62
2022/11/05 10:01:30;;;;;;;6.03;3.87;;;;;;;16.71;83.42;100377.00;5021556;28;20378;-63
2022/11/05 10:03:58;;;;;;;4.70;3.57;;;;;;;15.37;91.24;100377.16;5044089;28;20173;-62
2022/11/05 10:06:26;;;;;;;7.57;4.70;;;;;;;13.95;100.00;100387.44;5042062;28;20679;-61
2022/11/05 10:09:13;;;;;;;11.60;4.80;;;;;;;13.27;100.00;100383.88;5016579;28;20657;-61
2022/11/05 10:11:46;;;;;;;6.83;4.70;;;;;;;12.57;100.00;100391.41;5023734;28;20221;-60
2022/11/05 10:14:21;;;;;;;7.97;4.10;;;;;;;12.10;100.00;100397.56;5034621;28;20217;-60
2022/11/05 10:17:11;;;;;;;8.47;4.97;;;;;;;11.91;100.00;100402.88;5034123;28;20193;-63
2022/11/05 10:19:54;;;;;;;8.73;4.43;;;;;;;11.62;100.00;100397.56;5052282;28;20311;-60
2022/11/05 10:22:20;;;;;;;7.47;4.67;;;;;;;11.65;100.00;100404.28;5040962;28;20239;-59
2022/11/05 10:24:48;;;;;;;9.00;4.50;;;;;;;11.43;100.00;100403.69;5052244;28;20587;-60
2022/11/05 10:27:26;;;;;;;8.67;4.47;;;;;;;11.28;100.00;100405.34;5034092;28;20173;-59
2022/11/05 10:29:51;;;;;;;9.63;4.40;;;;;;;11.38;100.00;100404.88;5033786;28;20189;-60
2022/11/05 10:32:38;;;;;;;6.23;4.60;;;;;;;11.37;100.00;100400.63;5041245;28;20596;-60
2022/11/05 10:35:10;;;;;;;6.93;4.50;;;;;;;11.43;100.00;100405.44;5034274;28;20197;-60
2022/11/05 10:37:37;;;;;;;7.93;4.67;;;;;;;11.60;100.00;100402.81;5051831;28;20251;-60
2022/11/05 10:40:14;;;;;;;6.30;4.70;;;;;;;11.51;100.00;100412.75;5034139;28;20170;-64
2022/11/05 10:42:57;;;;;;;7.67;4.30;;;;;;;11.28;100.00;100404.53;5023466;28;20270;-60
2022/11/05 10:45:39;;;;;;;11.90;4.17;;;;;;;11.22;100.00;100408.25;5034202;28;20193;-60
2022/11/05 10:48:32;;;;;;;9.27;4.00;;;;;;;11.14;100.00;100415.56;5033407;28;20204;-60
2022/11/05 10:50:58;;;;;;;7.33;3.93;;;;;;;11.22;100.00;100407.41;5048893;28;20593;-60
2022/11/05 10:53:31;;;;;;;5.23;3.90;;;;;;;11.20;100.00;100407.50;5059957;28;20181;-59
2022/11/05 10:55:57;;;;;;;7.40;3.60;;;;;;;11.33;100.00;100406.88;5033742;28;20213;-61
2022/11/05 10:58:33;;;;;;;7.27;3.77;;;;;;;11.30;100.00;100403.53;5063853;28;20254;-59
2022/11/05 11:01:03;;;;;;;8.10;3.97;;;;;;;11.39;100.00;100402.22;5049457;28;20299;-60
2022/11/05 11:03:48;;;;;;;5.20;3.27;;;;;;;11.32;100.00;100412.91;5043180;28;20181;-60
2022/11/05 11:06:23;;;;;;;5.77;3.97;;;;;;;10.98;100.00;100413.75;5042989;28;20209;-65
2022/11/05 11:08:51;;;;;;;7.17;3.93;;;;;;;11.16;100.00;100408.56;5051587;28;20224;-60
2022/11/05 11:11:37;;;;;;;6.30;3.87;;;;;;;10.98;100.00;100406.03;5050573;28;20236;-60
2022/11/05 11:14:23;;;;;;;6.27;4.70;;;;;;;10.83;100.00;100409.41;5036745;28;20169;-61
2022/11/05 11:16:50;;;;;;;6.50;4.93;;;;;;;10.90;100.00;100405.59;5050563;28;20216;-60
2022/11/05 11:19:28;;;;;;;5.60;3.80;;;;;;;11.02;100.00;100404.13;5032634;28;20601;-59
2022/11/05 11:22:02;;;;;;;5.43;3.50;;;;;;;11.28;100.00;100400.19;5008685;28;20228;-60
2022/11/05 11:24:28;;;;;;;7.77;3.50;;;;;;;11.49;100.00;100394.00;5040287;28;20188;-60
2022/11/05 11:26:53;;;;;;;6.97;3.67;;;;;;;11.74;100.00;100399.47;5020912;28;20201;-60
2022/11/05 11:29:26;;;;;;;4.60;2.70;;;;;;;11.81;100.00;100396.56;5024542;28;20240;-61
2022/11/05 11:31:54;;;;;;;6.37;2.63;;;;;;;11.90;100.00;100403.78;5020410;28;20233;-60
2022/11/05 11:34:25;;;;;;;4.83;2.40;;;;;;;11.71;100.00;100401.38;5031447;28;20227;-60
2022/11/05 11:36:56;;;;;;;4.23;2.57;;;;;;;11.83;100.00;100392.97;5017801;28;20221;-60
2022/11/05 11:39:29;;;;;;;6.90;3.23;;;;;;;11.81;100.00;100399.97;5023995;28;20191;-60
2022/11/05 11:41:58;;;;;;;9.13;2.83;;;;;;;11.87;100.00;100397.06;5027754;28;20254;-60
2022/11/05 11:44:39;;;;;;;5.37;2.60;;;;;;;11.69;100.00;100398.06;5033119;28;20266;-61
2022/11/05 11:47:11;;;;;;;6.10;2.40;;;;;;;11.73;100.00;100396.97;5032813;28;20178;-60
2022/11/05 11:49:46;;;;;;;6.03;2.57;;;;;;;11.86;100.00;100395.41;5033353;28;20205;-61
2022/11/05 11:52:27;;;;;;;4.10;1.83;;;;;;;12.14;100.00;100400.78;5014105;28;20712;-64
2022/11/05 11:54:52;;;;;;;5.20;1.97;;;;;;;12.04;100.00;100409.03;5050136;28;20238;-62
2022/11/05 11:57:25;;;;;;;4.30;2.10;;;;;;;12.00;100.00;100412.69;5043225;28;20728;-60
2022/11/05 11:59:52;;;;;;;6.77;2.80;;;;;;;11.95;100.00;100409.53;5042468;28;20185;-61
2022/11/05 12:02:53;;;;;;;4.53;2.10;;;;;;;11.83;100.00;100407.63;5017117;28;20294;-61
2022/11/05 12:05:28;;;;;;;4.73;2.20;;;;;;;11.81;100.00;100410.28;5044675;28;20683;-58
2022/11/05 12:08:08;;;;;;;4.80;2.33;;;;;;;11.60;100.00;100397.66;5032367;28;20197;-60
2022/11/05 12:11:07;;;;;;;3.07;2.03;;;;;;;11.44;100.00;100400.22;5002078;28;20235;-60
2022/11/05 12:13:38;;;;;;;6.07;2.20;;;;;;;11.36;100.00;100398.97;5025224;28;20254;-60